Time;durP1;ratioP1;P1;durP2;ratioP2;P2;SDS_P1;SDS_P2;PMS_P1;PMS_P2;Temp;Humidity;BMP_temperature;BMP_pressure;BME280_temperature;BME280_humidity;BME280_pressure;Samples;Min_cycle;Max_cycle;Signal;HPM_P1;HPM_P2
2024/01/17 00:01:23;;;;;;;4.10;1.92;;;0.30;99.90;;;;;;5085333;28;20056;-64
2024/01/17 00:03:49;;;;;;;6.85;1.98;;;0.30;99.90;;;;;;5083165;28;20110;-64
2024/01/17 00:06:15;;;;;;;5.07;1.90;;;0.30;99.90;;;;;;5085106;28;20038;-64
2024/01/17 00:08:40;;;;;;;5.80;2.17;;;0.30;99.90;;;;;;5084953;28;20044;-64
2024/01/17 00:11:06;;;;;;;5.00;3.20;;;0.20;99.90;;;;;;5087605;28;20043;-64
2024/01/17 00:13:34;;;;;;;6.95;2.80;;;0.30;99.90;;;;;;5088184;28;20063;-64
2024/01/17 00:15:59;;;;;;;4.20;2.50;;;0.20;99.90;;;;;;5067536;28;20056;-64
2024/01/17 00:18:25;;;;;;;6.35;3.08;;;0.20;99.90;;;;;;5084103;28;21732;-64
2024/01/17 00:20:51;;;;;;;7.43;3.72;;;0.30;99.90;;;;;;5082999;28;20094;-64
2024/01/17 00:23:17;;;;;;;5.78;2.78;;;0.30;99.90;;;;;;5103176;27;20037;-64
2024/01/17 00:25:42;;;;;;;4.90;3.00;;;0.30;99.90;;;;;;5089289;28;20047;-64
2024/01/17 00:28:08;;;;;;;6.72;2.90;;;0.30;99.90;;;;;;5088230;28;20036;-64
2024/01/17 00:30:33;;;;;;;5.85;3.00;;;0.30;99.90;;;;;;5091816;28;20050;-64
2024/01/17 00:32:59;;;;;;;7.13;2.85;;;0.30;99.90;;;;;;5089376;28;20155;-64
2024/01/17 00:35:25;;;;;;;7.70;3.65;;;0.30;99.90;;;;;;5090499;28;20649;-64
2024/01/17 00:37:51;;;;;;;9.02;2.40;;;0.20;99.90;;;;;;5091671;28;20040;-64
2024/01/17 00:40:16;;;;;;;7.13;3.33;;;0.20;99.90;;;;;;5093193;28;20482;-64
2024/01/17 00:42:42;;;;;;;6.82;3.40;;;0.20;99.90;;;;;;5121109;27;20036;-64
2024/01/17 00:45:08;;;;;;;5.88;3.17;;;0.20;99.90;;;;;;5118778;27;20509;-64
2024/01/17 00:47:34;;;;;;;10.48;3.90;;;0.20;99.90;;;;;;5088548;28;20032;-64
2024/01/17 00:50:00;;;;;;;8.10;4.00;;;0.30;99.90;;;;;;5089253;28;20053;-64
2024/01/17 00:52:25;;;;;;;6.65;3.60;;;0.20;99.90;;;;;;5093696;28;20032;-64
2024/01/17 00:54:51;;;;;;;10.38;4.25;;;0.20;99.90;;;;;;5090529;28;20051;-63
2024/01/17 00:57:17;;;;;;;7.15;4.03;;;0.20;99.90;;;;;;5089453;28;20032;-64
2024/01/17 00:59:42;;;;;;;11.40;3.97;;;0.10;99.90;;;;;;5093283;28;20103;-64
2024/01/17 01:02:08;;;;;;;10.48;4.55;;;0.30;99.90;;;;;;5087620;28;20040;-64
2024/01/17 01:04:33;;;;;;;15.40;4.30;;;0.20;99.90;;;;;;5092341;28;20066;-64
2024/01/17 01:06:59;;;;;;;9.55;4.82;;;0.20;99.90;;;;;;5090956;28;20047;-64
2024/01/17 01:09:24;;;;;;;7.78;4.63;;;0.20;99.90;;;;;;5120639;27;20474;-64
2024/01/17 01:11:50;;;;;;;13.23;4.05;;;0.20;99.90;;;;;;5126151;27;20052;-64
2024/01/17 01:14:16;;;;;;;9.70;4.25;;;0.20;99.90;;;;;;5087985;28;20048;-63
2024/01/17 01:16:42;;;;;;;10.55;4.35;;;0.10;99.90;;;;;;5089445;28;20398;-64
2024/01/17 01:19:07;;;;;;;10.52;3.92;;;0.20;99.90;;;;;;5084889;28;20116;-64
2024/01/17 01:21:33;;;;;;;9.20;4.22;;;0.20;99.90;;;;;;5118351;27;20138;-64
2024/01/17 01:23:59;;;;;;;8.23;4.32;;;0.10;99.90;;;;;;5074898;28;20040;-64
2024/01/17 01:26:24;;;;;;;7.97;4.25;;;0.20;99.90;;;;;;5087914;28;20036;-64
2024/01/17 01:28:50;;;;;;;7.28;4.50;;;0.20;99.90;;;;;;5087976;28;20032;-64
2024/01/17 01:31:16;;;;;;;8.55;4.22;;;0.20;99.90;;;;;;5085977;28;20052;-64
2024/01/17 01:33:42;;;;;;;9.63;4.43;;;0.20;99.90;;;;;;5088004;28;20050;-64
2024/01/17 01:36:07;;;;;;;11.02;5.25;;;0.20;99.90;;;;;;5087260;28;20044;-64
2024/01/17 01:38:33;;;;;;;7.97;4.43;;;0.20;99.90;;;;;;5088194;28;20051;-64
2024/01/17 01:40:58;;;;;;;10.20;4.85;;;0.10;99.90;;;;;;5084727;28;20043;-64
2024/01/17 01:43:25;;;;;;;9.38;4.68;;;0.10;99.90;;;;;;5089871;28;20066;-64
2024/01/17 01:45:53;;;;;;;7.97;4.95;;;0.10;99.90;;;;;;5087147;28;20488;-64
2024/01/17 01:48:19;;;;;;;7.63;4.90;;;0.10;99.90;;;;;;5084529;28;20048;-64
2024/01/17 01:50:45;;;;;;;8.68;5.30;;;0.10;99.90;;;;;;5119701;27;20048;-64
2024/01/17 01:53:11;;;;;;;10.18;5.10;;;0.10;99.90;;;;;;5088585;28;20043;-64
2024/01/17 01:55:36;;;;;;;6.82;4.47;;;0.10;99.90;;;;;;5072223;28;20508;-64
2024/01/17 01:58:02;;;;;;;9.40;4.68;;;0.00;99.90;;;;;;5081323;28;20107;-64
2024/01/17 02:00:28;;;;;;;11.35;5.53;;;0.10;99.90;;;;;;5089051;28;20134;-64
2024/01/17 02:02:54;;;;;;;11.50;7.03;;;0.10;99.90;;;;;;5086594;28;20035;-64
2024/01/17 02:05:20;;;;;;;9.95;5.03;;;0.10;99.90;;;;;;5088606;28;20522;-64
2024/01/17 02:07:47;;;;;;;10.30;4.80;;;0.10;99.90;;;;;;5082972;28;20150;-64
2024/01/17 02:10:13;;;;;;;8.73;5.25;;;0.10;99.90;;;;;;5083840;28;20109;-64
2024/01/17 02:12:38;;;;;;;10.45;5.10;;;0.10;99.90;;;;;;5088905;28;20515;-64
2024/01/17 02:15:04;;;;;;;9.80;5.03;;;0.00;99.90;;;;;;5084004;28;20858;-64
2024/01/17 02:17:30;;;;;;;11.40;5.85;;;0.00;99.90;;;;;;5087115;28;20987;-64
2024/01/17 02:19:56;;;;;;;10.02;6.05;;;0.10;99.90;;;;;;5086234;28;20040;-64
2024/01/17 02:22:21;;;;;;;9.63;5.78;;;0.00;99.90;;;;;;5084739;28;20100;-64
2024/01/17 02:24:47;;;;;;;11.85;5.68;;;0.00;99.90;;;;;;5082944;28;20047;-64
2024/01/17 02:27:13;;;;;;;9.73;5.78;;;0.00;99.90;;;;;;5115750;27;20073;-64
2024/01/17 02:29:38;;;;;;;11.55;6.40;;;0.00;99.90;;;;;;5089435;28;20031;-64
2024/01/17 02:32:05;;;;;;;9.15;5.80;;;0.00;99.90;;;;;;5110620;27;20116;-64
2024/01/17 02:34:31;;;;;;;8.63;6.07;;;0.00;99.90;;;;;;5121921;27;20044;-64
2024/01/17 02:36:56;;;;;;;10.07;6.40;;;0.00;99.90;;;;;;5076460;28;20058;-64
2024/01/17 02:39:24;;;;;;;9.10;7.00;;;0.00;99.90;;;;;;5114437;27;20036;-64
2024/01/17 02:41:50;;;;;;;10.38;6.32;;;0.00;99.90;;;;;;5083720;28;20036;-64
2024/01/17 02:44:15;;;;;;;13.80;6.72;;;0.00;99.90;;;;;;5122657;27;20032;-64
2024/01/17 02:46:41;;;;;;;9.88;6.18;;;0.00;99.90;;;;;;5086717;28;20436;-64
2024/01/17 02:49:15;;;;;;;12.00;6.93;;;-0.10;99.90;;;;;;5122455;27;20046;-64
2024/01/17 02:51:41;;;;;;;12.75;7.18;;;-0.10;99.90;;;;;;5083639;28;20114;-64
2024/01/17 02:54:06;;;;;;;7.45;5.70;;;0.00;99.90;;;;;;5084298;28;20158;-64
2024/01/17 02:56:32;;;;;;;13.85;6.38;;;-0.10;99.90;;;;;;5086121;28;20042;-64
2024/01/17 02:58:57;;;;;;;12.18;6.63;;;-0.10;99.90;;;;;;5085988;28;20036;-64
2024/01/17 03:01:23;;;;;;;14.15;6.80;;;0.00;99.90;;;;;;5112070;27;20040;-64
2024/01/17 03:03:49;;;;;;;11.75;6.30;;;-0.10;99.90;;;;;;5120320;27;20067;-64
2024/01/17 03:06:16;;;;;;;14.73;7.00;;;-0.10;99.90;;;;;;5115850;27;20036;-64
2024/01/17 03:08:42;;;;;;;11.25;6.30;;;-0.10;99.90;;;;;;5087011;28;20042;-64
2024/01/17 03:11:08;;;;;;;10.82;6.63;;;-0.10;99.90;;;;;;5084754;28;20051;-64
2024/01/17 03:13:33;;;;;;;12.85;7.53;;;-0.10;99.90;;;;;;5082192;28;20481;-64
2024/01/17 03:15:59;;;;;;;13.07;6.47;;;-0.10;99.90;;;;;;5088630;28;20097;-64
2024/01/17 03:18:25;;;;;;;13.68;6.45;;;-0.10;99.90;;;;;;5084210;28;20442;-64
2024/01/17 03:20:50;;;;;;;19.90;7.07;;;-0.10;99.90;;;;;;5080855;28;20055;-64
2024/01/17 03:23:16;;;;;;;12.40;6.85;;;-0.10;99.90;;;;;;5082485;28;20039;-64
2024/01/17 03:25:41;;;;;;;12.85;7.18;;;-0.20;99.90;;;;;;5080115;28;20063;-64
2024/01/17 03:28:07;;;;;;;10.63;6.60;;;-0.10;99.90;;;;;;5084786;28;20111;-64
2024/01/17 03:30:34;;;;;;;10.52;7.15;;;-0.20;99.90;;;;;;5083073;28;20036;-64
2024/01/17 03:32:59;;;;;;;10.68;6.88;;;-0.10;99.90;;;;;;5077559;28;20051;-64
2024/01/17 03:35:25;;;;;;;10.80;6.50;;;-0.10;99.90;;;;;;5079692;28;20448;-64
2024/01/17 03:37:51;;;;;;;9.25;6.35;;;-0.20;99.90;;;;;;5082196;28;20639;-64
2024/01/17 03:40:16;;;;;;;14.25;6.82;;;-0.10;99.90;;;;;;5082286;28;20131;-64
2024/01/17 03:42:42;;;;;;;10.40;6.07;;;-0.10;99.90;;;;;;5083126;28;20402;-64
2024/01/17 03:45:08;;;;;;;10.88;6.63;;;-0.20;99.90;;;;;;5079351;28;20040;-64
2024/01/17 03:47:33;;;;;;;13.25;7.50;;;-0.20;99.90;;;;;;5081887;28;20024;-64
2024/01/17 03:49:59;;;;;;;12.32;6.93;;;-0.20;99.90;;;;;;5081997;28;20067;-64
2024/01/17 03:52:25;;;;;;;9.73;6.85;;;-0.20;99.90;;;;;;5077489;28;20047;-64
2024/01/17 03:54:50;;;;;;;9.32;6.40;;;-0.20;99.90;;;;;;5081745;28;20390;-64
2024/01/17 03:57:16;;;;;;;12.65;6.50;;;-0.20;99.90;;;;;;5079634;28;20059;-64
2024/01/17 03:59:43;;;;;;;11.13;6.80;;;-0.20;99.90;;;;;;5079660;28;20059;-64
2024/01/17 04:02:08;;;;;;;11.73;7.15;;;-0.20;99.90;;;;;;5082183;28;20044;-64
2024/01/17 04:04:34;;;;;;;11.45;7.15;;;-0.20;99.90;;;;;;5081661;28;20055;-64
2024/01/17 04:07:00;;;;;;;10.35;6.97;;;-0.20;99.90;;;;;;5081198;28;20555;-64
2024/01/17 04:09:25;;;;;;;15.02;7.07;;;-0.20;99.90;;;;;;5083562;28;20118;-64
2024/01/17 04:11:52;;;;;;;11.07;7.03;;;-0.20;99.90;;;;;;5082177;28;20852;-64
2024/01/17 04:14:17;;;;;;;15.48;8.13;;;-0.20;99.90;;;;;;5080548;28;20040;-64
2024/01/17 04:16:43;;;;;;;11.50;7.68;;;-0.20;99.90;;;;;;5079069;28;20044;-64
2024/01/17 04:19:09;;;;;;;9.40;6.60;;;-0.20;99.90;;;;;;5080501;28;20040;-64
2024/01/17 04:21:35;;;;;;;12.68;6.68;;;-0.20;99.90;;;;;;5081878;28;20117;-64
2024/01/17 04:24:01;;;;;;;11.25;7.45;;;-0.30;99.90;;;;;;5081948;28;20044;-64
2024/01/17 04:26:26;;;;;;;9.05;6.65;;;-0.30;99.90;;;;;;5082260;28;20032;-64
2024/01/17 04:28:53;;;;;;;13.77;7.35;;;-0.30;99.90;;;;;;5108186;27;20036;-64
2024/01/17 04:31:29;;;;;;;11.63;7.43;;;-0.30;99.90;;;;;;5095743;28;20040;-64
2024/01/17 04:33:55;;;;;;;11.48;6.32;;;-0.30;99.90;;;;;;5086266;28;20063;-64
2024/01/17 04:36:24;;;;;;;12.00;7.35;;;-0.30;99.90;;;;;;5110178;27;20048;-64
2024/01/17 04:38:49;;;;;;;10.50;6.70;;;-0.30;99.90;;;;;;5083190;28;20056;-64
2024/01/17 04:41:16;;;;;;;13.20;6.90;;;-0.30;99.90;;;;;;5083002;28;20046;-64
2024/01/17 04:43:44;;;;;;;9.32;6.32;;;-0.30;99.90;;;;;;5079143;28;20039;-64
2024/01/17 04:46:14;;;;;;;13.30;7.13;;;-0.30;99.90;;;;;;5081781;28;20124;-64
2024/01/17 04:48:41;;;;;;;10.15;7.05;;;-0.30;99.90;;;;;;5096536;28;20046;-64
2024/01/17 04:51:08;;;;;;;10.18;7.25;;;-0.30;99.90;;;;;;5084123;28;20045;-64
2024/01/17 04:53:33;;;;;;;13.18;6.10;;;-0.30;99.90;;;;;;5080944;28;20076;-64
2024/01/17 04:56:00;;;;;;;12.32;7.68;;;-0.30;99.90;;;;;;5077086;28;20092;-64
2024/01/17 04:58:26;;;;;;;13.45;6.40;;;-0.30;99.90;;;;;;5077041;28;20043;-64
2024/01/17 05:00:52;;;;;;;10.60;7.43;;;-0.30;99.90;;;;;;5077626;28;20127;-64
2024/01/17 05:03:18;;;;;;;11.30;7.43;;;-0.30;99.90;;;;;;5081189;28;20044;-64
2024/01/17 05:05:44;;;;;;;8.32;6.28;;;-0.30;99.90;;;;;;5085054;28;20048;-64
2024/01/17 05:08:10;;;;;;;15.55;6.75;;;-0.40;99.90;;;;;;5093527;28;20048;-64
2024/01/17 05:10:36;;;;;;;12.60;6.80;;;-0.30;99.90;;;;;;5113397;27;20477;-64
2024/01/17 05:13:01;;;;;;;12.10;6.90;;;-0.40;99.90;;;;;;5114208;27;20047;-64
2024/01/17 05:15:27;;;;;;;8.90;6.25;;;-0.40;99.90;;;;;;5083223;28;20545;-64
2024/01/17 05:17:54;;;;;;;11.15;6.80;;;-0.40;99.90;;;;;;5081192;28;20040;-64
2024/01/17 05:20:19;;;;;;;15.25;6.75;;;-0.40;99.90;;;;;;5084815;28;20040;-64
2024/01/17 05:22:45;;;;;;;9.45;6.65;;;-0.30;99.90;;;;;;5111627;27;21576;-64
2024/01/17 05:25:11;;;;;;;10.88;6.45;;;-0.40;99.90;;;;;;5081939;28;20075;-64
2024/01/17 05:27:37;;;;;;;11.48;6.20;;;-0.40;99.90;;;;;;5083740;28;20044;-64
2024/01/17 05:30:04;;;;;;;10.05;6.00;;;-0.30;99.90;;;;;;5110957;27;20142;-64
2024/01/17 05:32:30;;;;;;;10.23;5.75;;;-0.40;99.90;;;;;;5078752;28;20108;-64
2024/01/17 05:34:56;;;;;;;10.43;6.63;;;-0.30;99.90;;;;;;5111298;27;20044;-64
2024/01/17 05:37:23;;;;;;;10.50;6.90;;;-0.30;99.90;;;;;;5076557;28;20482;-64
2024/01/17 05:39:49;;;;;;;11.98;6.35;;;-0.40;99.90;;;;;;5084649;28;20048;-64
2024/01/17 05:42:15;;;;;;;10.65;6.00;;;-0.40;99.90;;;;;;5081877;28;20043;-64
2024/01/17 05:44:40;;;;;;;11.32;6.53;;;-0.40;99.90;;;;;;5082625;28;20122;-64
2024/01/17 05:47:07;;;;;;;14.18;6.43;;;-0.40;99.90;;;;;;5085233;28;20494;-64
2024/01/17 05:49:33;;;;;;;10.23;6.20;;;-0.30;99.90;;;;;;5112543;27;20047;-64
2024/01/17 05:51:58;;;;;;;10.38;6.15;;;-0.40;99.90;;;;;;5082915;28;20032;-64
2024/01/17 05:54:24;;;;;;;8.98;5.60;;;-0.40;99.90;;;;;;5083727;28;20386;-64
2024/01/17 05:56:51;;;;;;;12.38;7.75;;;-0.40;99.90;;;;;;5084730;28;20490;-64
2024/01/17 05:59:16;;;;;;;9.55;6.38;;;-0.40;99.90;;;;;;5083748;28;20158;-64
2024/01/17 06:01:42;;;;;;;9.57;6.05;;;-0.40;99.90;;;;;;5082393;28;20502;-64
2024/01/17 06:04:08;;;;;;;10.02;5.95;;;-0.40;99.90;;;;;;5084548;28;20123;-64
2024/01/17 06:06:33;;;;;;;9.23;5.88;;;-0.40;99.90;;;;;;5084624;28;20395;-64
2024/01/17 06:08:59;;;;;;;11.75;6.18;;;-0.40;99.90;;;;;;5097704;27;20396;-64
2024/01/17 06:11:26;;;;;;;9.35;5.38;;;-0.50;99.90;;;;;;5081708;28;20179;-64
2024/01/17 06:13:53;;;;;;;11.90;5.63;;;-0.40;99.90;;;;;;5080362;28;20135;-64
2024/01/17 06:16:18;;;;;;;9.65;5.97;;;-0.40;99.90;;;;;;5081340;28;20158;-64
2024/01/17 06:18:44;;;;;;;11.52;6.47;;;-0.50;99.90;;;;;;5082057;28;20534;-64
2024/01/17 06:21:10;;;;;;;8.50;5.65;;;-0.40;99.90;;;;;;5078220;28;20037;-64
2024/01/17 06:23:36;;;;;;;7.75;5.90;;;-0.40;99.90;;;;;;5079800;28;20050;-64
2024/01/17 06:26:02;;;;;;;10.82;6.57;;;-0.40;99.90;;;;;;5084376;28;20512;-64
2024/01/17 06:28:28;;;;;;;9.75;5.70;;;-0.40;99.90;;;;;;5080907;28;20036;-64
2024/01/17 06:30:54;;;;;;;11.90;5.18;;;-0.40;99.90;;;;;;5083564;28;20035;-64
2024/01/17 06:33:20;;;;;;;8.93;5.63;;;-0.40;99.90;;;;;;5081029;28;20129;-64
2024/01/17 06:35:49;;;;;;;11.93;5.95;;;-0.40;99.90;;;;;;5109920;27;20047;-64
2024/01/17 06:38:15;;;;;;;9.85;5.70;;;-0.50;99.90;;;;;;5082323;28;20537;-64
2024/01/17 06:40:41;;;;;;;9.07;5.70;;;-0.50;99.90;;;;;;5079605;28;20048;-64
2024/01/17 06:43:06;;;;;;;9.77;5.60;;;-0.50;99.90;;;;;;5080684;28;20470;-64
2024/01/17 06:45:32;;;;;;;9.05;5.80;;;-0.50;99.90;;;;;;5077341;28;20079;-64
2024/01/17 06:47:59;;;;;;;11.95;5.60;;;-0.50;99.90;;;;;;5081309;28;20033;-64
2024/01/17 06:50:24;;;;;;;9.35;5.70;;;-0.60;99.90;;;;;;5064634;28;20382;-64
2024/01/17 06:52:50;;;;;;;9.45;6.45;;;-0.70;99.90;;;;;;5083647;28;20048;-64
2024/01/17 06:55:16;;;;;;;12.95;5.32;;;-0.70;99.90;;;;;;5086672;28;20043;-64
2024/01/17 06:57:41;;;;;;;9.35;6.40;;;-0.80;99.90;;;;;;5077849;28;20047;-64
2024/01/17 07:00:07;;;;;;;12.30;6.22;;;-0.80;99.90;;;;;;5081412;28;20420;-64
2024/01/17 07:02:33;;;;;;;12.73;5.60;;;-0.90;99.90;;;;;;5066811;28;20429;-64
2024/01/17 07:04:59;;;;;;;11.88;5.72;;;-0.90;99.90;;;;;;5111775;27;20047;-64
2024/01/17 07:07:24;;;;;;;9.95;5.38;;;-0.90;99.90;;;;;;5082675;28;20024;-64
2024/01/17 07:09:50;;;;;;;9.00;5.28;;;-1.00;99.90;;;;;;5110006;27;20561;-64
2024/01/17 07:12:15;;;;;;;8.85;5.65;;;-1.00;99.90;;;;;;5078807;28;20031;-64
2024/01/17 07:14:41;;;;;;;8.02;4.88;;;-1.00;99.90;;;;;;5077811;28;20040;-64
2024/01/17 07:17:07;;;;;;;13.02;6.35;;;-1.10;99.90;;;;;;5079174;28;20043;-64
2024/01/17 07:19:36;;;;;;;10.82;6.18;;;-1.10;99.90;;;;;;5081843;28;20486;-64
2024/01/17 07:22:02;;;;;;;9.93;5.50;;;-1.10;99.90;;;;;;5082909;28;20241;-64
2024/01/17 07:24:27;;;;;;;12.95;6.18;;;-1.20;99.90;;;;;;5088016;28;20574;-64
2024/01/17 07:26:53;;;;;;;11.98;5.65;;;-1.10;99.90;;;;;;5080439;28;20043;-64
2024/01/17 07:29:19;;;;;;;10.15;6.47;;;-1.20;99.90;;;;;;5079852;28;20402;-64
2024/01/17 07:31:44;;;;;;;7.43;5.47;;;-1.20;99.90;;;;;;5081891;28;20037;-64
2024/01/17 07:34:10;;;;;;;11.52;6.15;;;-1.30;99.90;;;;;;5112333;27;20056;-64
2024/01/17 07:36:36;;;;;;;11.07;4.95;;;-1.30;99.90;;;;;;5079754;28;20443;-64
2024/01/17 07:39:02;;;;;;;10.07;6.03;;;-1.30;99.90;;;;;;5080073;28;20538;-64
2024/01/17 07:41:29;;;;;;;10.95;5.75;;;-1.30;99.90;;;;;;5082238;28;20044;-64
2024/01/17 07:43:55;;;;;;;8.75;5.53;;;-1.30;99.90;;;;;;5082445;28;20036;-64
2024/01/17 07:46:21;;;;;;;11.75;5.43;;;-1.40;99.90;;;;;;5080364;28;20047;-64
2024/01/17 07:48:46;;;;;;;10.20;5.55;;;-1.40;99.90;;;;;;5084551;28;20493;-64
2024/01/17 07:51:13;;;;;;;10.43;6.03;;;-1.40;99.90;;;;;;5085214;28;20092;-64
2024/01/17 07:53:39;;;;;;;10.70;4.95;;;-1.40;99.90;;;;;;5082411;28;20042;-64
2024/01/17 07:56:05;;;;;;;11.18;6.03;;;-1.40;99.90;;;;;;5081525;28;20052;-64
2024/01/17 07:58:31;;;;;;;10.38;6.10;;;-1.40;99.90;;;;;;5092274;27;20048;-64
2024/01/17 08:00:57;;;;;;;10.98;5.72;;;-1.40;99.90;;;;;;5081372;28;20040;-64
2024/01/17 08:03:23;;;;;;;9.55;5.30;;;-1.50;99.90;;;;;;5081176;27;20032;-64
2024/01/17 08:05:48;;;;;;;13.40;6.97;;;-1.50;99.90;;;;;;5083552;28;20511;-64
2024/01/17 08:08:14;;;;;;;11.02;6.05;;;-1.50;99.90;;;;;;5113779;27;20098;-64
2024/01/17 08:10:39;;;;;;;16.70;6.22;;;-1.50;99.90;;;;;;5077860;28;20135;-64
2024/01/17 08:13:05;;;;;;;9.88;5.88;;;-1.50;99.90;;;;;;5079860;28;20048;-64
2024/01/17 08:15:31;;;;;;;13.43;6.40;;;-1.50;99.90;;;;;;5080308;28;20040;-64
2024/01/17 08:17:57;;;;;;;10.57;6.43;;;-1.50;99.90;;;;;;5081111;28;20518;-64
2024/01/17 08:20:22;;;;;;;10.30;5.28;;;-1.50;99.90;;;;;;5087590;28;20039;-64
2024/01/17 08:22:48;;;;;;;8.13;5.07;;;-1.50;99.90;;;;;;5090348;28;20044;-64
2024/01/17 08:25:14;;;;;;;9.30;6.45;;;-1.50;99.90;;;;;;5082449;28;20119;-64
2024/01/17 08:27:39;;;;;;;11.45;6.03;;;-1.50;99.90;;;;;;5076910;28;20039;-64
2024/01/17 08:30:09;;;;;;;11.10;5.72;;;-1.50;99.90;;;;;;5082809;28;20044;-64
2024/01/17 08:32:36;;;;;;;13.57;5.95;;;-1.50;99.90;;;;;;5083808;28;20041;-64
2024/01/17 08:35:02;;;;;;;12.50;6.80;;;-1.60;99.90;;;;;;5080876;28;20552;-64
2024/01/17 08:37:28;;;;;;;12.90;6.80;;;-1.50;99.90;;;;;;5087693;28;20067;-64
2024/01/17 08:39:54;;;;;;;8.20;5.95;;;-1.50;99.90;;;;;;5111013;27;20161;-64
2024/01/17 08:42:20;;;;;;;14.05;7.10;;;-1.60;99.90;;;;;;5113217;27;20078;-64
2024/01/17 08:44:45;;;;;;;9.90;5.97;;;-1.40;99.90;;;;;;5089006;28;20470;-64
2024/01/17 08:47:11;;;;;;;12.50;5.72;;;-1.50;99.90;;;;;;5086140;28;20042;-64
2024/01/17 08:49:40;;;;;;;12.50;6.80;;;-1.50;99.90;;;;;;5084955;28;20470;-64
2024/01/17 08:52:07;;;;;;;7.68;4.93;;;-1.50;99.90;;;;;;5088022;28;20043;-64
2024/01/17 08:54:34;;;;;;;9.13;6.75;;;-1.40;99.90;;;;;;5087005;28;20032;-64
2024/01/17 08:57:01;;;;;;;11.70;5.95;;;-1.50;99.90;;;;;;5086717;28;20146;-64
2024/01/17 08:59:28;;;;;;;9.70;6.72;;;-1.40;99.90;;;;;;5084870;28;20486;-64
2024/01/17 09:01:56;;;;;;;9.18;6.05;;;-1.40;99.90;;;;;;5115057;27;20032;-64
2024/01/17 09:04:23;;;;;;;9.05;5.32;;;-1.40;99.90;;;;;;5085991;28;20048;-64
2024/01/17 09:06:49;;;;;;;12.55;5.85;;;-1.40;99.90;;;;;;5086430;28;20050;-64
2024/01/17 09:09:15;;;;;;;10.40;5.57;;;-1.30;99.90;;;;;;5085407;28;20037;-64
2024/01/17 09:11:41;;;;;;;11.43;6.45;;;-1.30;99.90;;;;;;5070113;28;20051;-64
2024/01/17 09:14:07;;;;;;;7.50;5.35;;;-1.30;99.90;;;;;;5089073;28;20728;-64
2024/01/17 09:16:33;;;;;;;10.82;6.10;;;-1.30;99.90;;;;;;5084342;28;20046;-64
2024/01/17 09:18:59;;;;;;;9.20;5.85;;;-1.30;99.90;;;;;;5087374;28;20056;-64
2024/01/17 09:21:25;;;;;;;10.30;5.70;;;-1.20;99.90;;;;;;5085321;28;20047;-64
2024/01/17 09:23:51;;;;;;;10.60;5.80;;;-1.20;99.90;;;;;;5083751;28;20146;-64
2024/01/17 09:26:17;;;;;;;15.55;6.15;;;-1.20;99.90;;;;;;5106553;27;20131;-64
2024/01/17 09:28:42;;;;;;;8.10;5.55;;;-1.10;99.90;;;;;;5086101;28;20119;-64
2024/01/17 09:31:08;;;;;;;10.35;5.63;;;-1.10;99.90;;;;;;5086303;28;20048;-64
2024/01/17 09:33:35;;;;;;;9.40;5.90;;;-1.00;99.90;;;;;;5070604;28;20033;-64
2024/01/17 09:36:01;;;;;;;9.05;5.90;;;-1.00;99.90;;;;;;5115699;27;20051;-64
2024/01/17 09:38:26;;;;;;;9.30;5.93;;;-1.00;99.90;;;;;;5086691;28;20039;-64
2024/01/17 09:40:52;;;;;;;7.97;5.55;;;-0.90;99.90;;;;;;5088956;28;20036;-64
2024/01/17 09:43:18;;;;;;;10.55;6.82;;;-0.90;99.90;;;;;;5089718;28;20032;-64
2024/01/17 09:45:44;;;;;;;10.65;6.38;;;-0.90;99.90;;;;;;5089384;28;20776;-64
2024/01/17 09:48:15;;;;;;;8.93;5.03;;;-0.80;99.90;;;;;;5085715;28;20369;-64
2024/01/17 09:50:40;;;;;;;9.40;5.72;;;-0.80;99.90;;;;;;5069135;28;20151;-64
2024/01/17 09:53:14;;;;;;;8.07;6.03;;;-0.70;99.90;;;;;;5086519;28;20044;-64
2024/01/17 09:55:41;;;;;;;12.32;5.65;;;-0.70;99.90;;;;;;5085865;28;20440;-64
2024/01/17 09:58:09;;;;;;;8.95;5.22;;;-0.60;99.90;;;;;;5086786;28;20438;-64
2024/01/17 10:00:35;;;;;;;9.07;5.65;;;-0.60;99.90;;;;;;5088583;28;20421;-64
2024/01/17 10:03:02;;;;;;;8.57;5.93;;;-0.60;99.90;;;;;;5084182;28;20040;-64
2024/01/17 10:05:30;;;;;;;8.88;5.72;;;-0.60;99.90;;;;;;5082958;28;20144;-64
2024/01/17 10:07:58;;;;;;;9.10;5.85;;;-0.60;99.90;;;;;;5085111;28;20043;-63
2024/01/17 10:10:24;;;;;;;8.57;5.82;;;-0.50;99.90;;;;;;5087484;28;20047;-64
2024/01/17 10:12:54;;;;;;;12.35;5.63;;;-0.60;99.90;;;;;;5088102;28;20033;-64
2024/01/17 10:15:23;;;;;;;8.05;5.40;;;-0.50;99.90;;;;;;5088577;28;20039;-64
2024/01/17 10:17:49;;;;;;;8.38;5.55;;;-0.50;99.90;;;;;;5085880;28;20047;-64
2024/01/17 10:20:16;;;;;;;9.73;5.25;;;-0.40;99.90;;;;;;5085369;28;20040;-64
2024/01/17 10:22:45;;;;;;;11.00;5.60;;;-0.40;99.90;;;;;;5089848;28;20119;-64
2024/01/17 10:25:12;;;;;;;6.55;5.20;;;-0.40;99.90;;;;;;5115702;27;20044;-64
2024/01/17 10:27:37;;;;;;;9.82;5.78;;;-0.40;99.90;;;;;;5086894;28;20355;-64
2024/01/17 10:30:04;;;;;;;9.63;5.40;;;-0.40;99.90;;;;;;5085228;28;20044;-64
2024/01/17 10:32:31;;;;;;;7.15;5.38;;;-0.40;99.90;;;;;;5073773;28;20070;-64
2024/01/17 10:34:58;;;;;;;9.77;5.85;;;-0.30;99.90;;;;;;5086859;28;20044;-64
2024/01/17 10:37:25;;;;;;;7.68;4.60;;;-0.30;99.90;;;;;;5084142;28;20079;-64
2024/01/17 10:40:09;;;;;;;7.43;5.85;;;-0.40;99.90;;;;;;5086499;28;20427;-64
2024/01/17 10:42:34;;;;;;;10.20;5.57;;;-0.30;99.90;;;;;;5116771;27;20043;-64
2024/01/17 10:45:00;;;;;;;5.97;4.82;;;-0.30;99.90;;;;;;5084853;28;20032;-64
2024/01/17 10:47:25;;;;;;;11.80;5.15;;;-0.30;99.90;;;;;;5084721;28;20036;-64
2024/01/17 10:49:51;;;;;;;11.85;4.97;;;-0.30;99.90;;;;;;5082710;28;20119;-64
2024/01/17 10:52:18;;;;;;;9.40;4.72;;;-0.20;99.90;;;;;;5080612;28;20063;-64
2024/01/17 10:54:46;;;;;;;9.05;5.00;;;-0.20;99.90;;;;;;5082885;28;20413;-64
2024/01/17 10:57:14;;;;;;;9.82;6.07;;;-0.20;99.90;;;;;;5085478;28;20047;-64
2024/01/17 10:59:48;;;;;;;9.15;4.97;;;-0.10;99.90;;;;;;5110163;27;20131;-64
2024/01/17 11:02:21;;;;;;;7.65;5.40;;;-0.10;99.90;;;;;;5075905;28;20083;-64
2024/01/17 11:04:57;;;;;;;7.53;4.90;;;-0.10;99.90;;;;;;5086327;28;20043;-64
2024/01/17 11:07:24;;;;;;;11.70;5.40;;;0.00;99.90;;;;;;5082316;28;20074;-64
2024/01/17 11:09:52;;;;;;;7.40;4.75;;;0.10;99.90;;;;;;5078193;28;20123;-64
2024/01/17 11:12:20;;;;;;;9.05;4.93;;;0.00;99.90;;;;;;5081222;28;20048;-64
2024/01/17 11:14:47;;;;;;;10.88;5.50;;;0.10;99.90;;;;;;5082719;28;20520;-64
2024/01/17 11:17:15;;;;;;;7.97;5.38;;;0.10;99.90;;;;;;5080574;28;20031;-64
2024/01/17 11:19:43;;;;;;;8.50;5.15;;;0.10;99.90;;;;;;5111696;27;20093;-64
2024/01/17 11:22:11;;;;;;;9.48;5.90;;;0.10;99.90;;;;;;5084364;28;20093;-64
2024/01/17 11:24:55;;;;;;;8.35;4.28;;;0.10;99.90;;;;;;5079853;28;20055;-64
2024/01/17 11:27:42;;;;;;;7.93;4.80;;;0.20;99.90;;;;;;5082716;28;20063;-64
2024/01/17 11:30:29;;;;;;;15.15;5.18;;;0.20;99.90;;;;;;5081567;28;20116;-64
2024/01/17 11:33:10;;;;;;;5.53;4.35;;;0.10;99.90;;;;;;5087881;28;20039;-64
2024/01/17 11:35:49;;;;;;;8.25;4.93;;;0.20;99.90;;;;;;5087479;28;20043;-64
2024/01/17 11:38:23;;;;;;;10.07;5.05;;;0.10;99.90;;;;;;5086715;28;20092;-64
2024/01/17 11:40:53;;;;;;;7.53;5.32;;;0.10;99.90;;;;;;5090046;28;20127;-64
2024/01/17 11:43:19;;;;;;;8.02;4.35;;;0.20;99.90;;;;;;5084670;28;20051;-64
2024/01/17 11:45:47;;;;;;;8.85;4.90;;;0.20;99.90;;;;;;5089139;28;20032;-64
2024/01/17 11:48:22;;;;;;;5.50;4.25;;;0.20;99.90;;;;;;5081847;28;20067;-64
2024/01/17 11:51:01;;;;;;;10.13;6.15;;;0.20;99.90;;;;;;5084990;28;20058;-63
2024/01/17 11:53:31;;;;;;;7.00;5.00;;;0.20;99.90;;;;;;5112495;27;20047;-64
2024/01/17 11:55:57;;;;;;;6.07;4.30;;;0.20;99.90;;;;;;5113492;27;20051;-64
2024/01/17 11:58:41;;;;;;;10.90;4.35;;;0.20;99.90;;;;;;5086994;28;20047;-64
2024/01/17 12:01:09;;;;;;;8.73;4.82;;;0.20;99.90;;;;;;5087103;28;20040;-65
2024/01/17 12:03:35;;;;;;;9.98;5.40;;;0.20;99.90;;;;;;5083079;28;20704;-64
2024/01/17 12:06:02;;;;;;;8.13;5.25;;;0.20;99.90;;;;;;5082452;28;20055;-63
2024/01/17 12:08:28;;;;;;;9.35;4.88;;;0.20;99.90;;;;;;5082947;28;20043;-65
2024/01/17 12:10:57;;;;;;;7.55;4.55;;;0.30;99.90;;;;;;5082672;28;20093;-65
2024/01/17 12:13:23;;;;;;;10.68;4.78;;;0.30;99.90;;;;;;5081657;28;20090;-65
2024/01/17 12:15:56;;;;;;;7.32;4.50;;;0.40;99.90;;;;;;5115789;27;20179;-64
2024/01/17 12:18:24;;;;;;;7.72;5.00;;;0.40;99.90;;;;;;5082296;28;20390;-64
2024/01/17 12:20:50;;;;;;;7.50;4.47;;;0.40;99.90;;;;;;5083608;28;20032;-65
2024/01/17 12:23:21;;;;;;;7.65;4.10;;;0.50;99.90;;;;;;5084100;28;20041;-64
2024/01/17 12:25:48;;;;;;;6.70;4.63;;;0.50;99.90;;;;;;5084678;28;20054;-65
2024/01/17 12:28:18;;;;;;;9.07;4.40;;;0.50;99.90;;;;;;5089069;28;20031;-65
2024/01/17 12:30:58;;;;;;;6.55;4.72;;;0.60;99.90;;;;;;5090012;28;20051;-65
2024/01/17 12:33:28;;;;;;;7.57;4.70;;;0.60;99.90;;;;;;5083133;28;20244;-65
2024/01/17 12:35:55;;;;;;;6.60;4.20;;;0.60;99.90;;;;;;5084410;28;20079;-64
2024/01/17 12:38:21;;;;;;;8.40;4.22;;;0.50;99.90;;;;;;5081565;28;20135;-65
2024/01/17 12:40:50;;;;;;;7.75;4.50;;;0.60;99.90;;;;;;5078301;28;20553;-65
2024/01/17 12:43:21;;;;;;;6.40;3.78;;;0.60;99.90;;;;;;5084900;28;20051;-64